CSUN New Campus Station -PST Time - Most Recent Data on bottom of page




           Date/Time      Avg      Avg      Max     Wind      Avg      Max      Min      Avg      Avg    Total      Avg     Batt
                         Wind     Wind     Wind      Dir     Temp     Temp     Temp       RH      Bar     Rain    Solar     Volt
                      Spd MPH      Dir  Spd MPH   at Max    Deg_F    Deg_F    Deg_F        % Press_mb   Inches     W/m2      Min
--------------------------------------------------------------------------------------------------------------------------------
    09/15/2014 00:00      0.5       67      3.8       82     81.3     82.0     80.7       35     1008     0.00        0     13.2
    09/15/2014 00:15      1.5       37      4.1       35     81.0     81.3     80.5       35     1008     0.00        0     13.2
    09/15/2014 00:30      1.3      353      3.5      336     81.1     81.3     81.0       36     1008     0.00        0     13.2
    09/15/2014 00:45      0.6      357      2.9        6     80.4     81.1     79.6       39     1008     0.00        0     13.2
    09/15/2014 01:00      0.2      343      1.5      337     79.7     80.1     79.0       41     1008     0.00        0     13.2
    09/15/2014 01:15      0.0      352      0.0      352     78.5     79.2     78.2       41     1008     0.00        0     13.2
    09/15/2014 01:30      0.2       17      2.2       28     78.3     78.7     78.0       42     1008     0.00        0     13.2
    09/15/2014 01:45      0.5       58      2.5       35     78.3     78.8     77.7       42     1008     0.00        0     13.2
    09/15/2014 02:00      0.0        0      0.0       64     77.2     77.9     76.8       43     1008     0.00        0     13.2
    09/15/2014 02:15      0.0      355      1.0      342     76.8     77.4     76.2       45     1008     0.00        0     13.2
    09/15/2014 02:30      0.1        9      1.2      346     76.5     76.8     76.1       47     1008     0.00        0     13.2
    09/15/2014 02:45      0.0        0      0.0      336     75.8     76.5     75.4       47     1008     0.00        0     13.2
    09/15/2014 03:00      0.1      328      1.8      346     75.7     76.0     75.2       48     1008     0.00        0     13.2
    09/15/2014 03:15      0.1      297      1.1      293     75.2     75.4     74.9       46     1008     0.00        0     13.2
    09/15/2014 03:30      0.0        0      0.0      322     75.0     75.5     74.5       48     1007     0.00        0     13.2
    09/15/2014 03:45      0.0        0      0.0      291     74.7     75.0     74.4       47     1007     0.00        0     13.2
    09/15/2014 04:00      0.0        0      0.0      102     74.5     74.7     74.1       48     1008     0.00        0     13.2
    09/15/2014 04:15      0.0        0      0.0       98     74.3     74.6     74.1       50     1008     0.00        0     13.3
    09/15/2014 04:30      0.0      312      0.3      323     74.2     74.6     73.8       48     1008     0.00        0     13.3
    09/15/2014 04:45      0.0        0      0.0      318     74.0     74.5     73.8       50     1008     0.00        0     13.3
    09/15/2014 05:00      0.0        0      0.0      352     73.6     74.0     73.0       52     1008     0.00        0     13.3
    09/15/2014 05:15      0.0        0      0.0      351     73.3     73.7     73.0       52     1008     0.00        0     13.3
    09/15/2014 05:30      0.1      346      1.1      343     73.5     73.8     73.1       51     1008     0.00        0     13.3
    09/15/2014 05:45      1.1      343      2.3      341     74.5     75.1     73.7       48     1008     0.00        3     13.3
    09/15/2014 06:00      0.0      338      0.8      338     74.2     75.1     73.6       52     1009     0.00       11     13.3
    09/15/2014 06:15      0.0        0      0.0      327     73.8     74.4     73.5       50     1009     0.00       19     13.3
    09/15/2014 06:30      0.0      143      0.9      145     74.3     74.7     74.1       50     1009     0.00       36     13.3
    09/15/2014 06:45      0.0        0      0.0      133     75.5     76.5     74.6       49     1009     0.00       59     13.3
    09/15/2014 07:00      0.0        0      0.0      133     77.7     78.8     76.4       48     1009     0.00      157     13.2
    09/15/2014 07:15      0.0      199      1.1      189     79.6     80.9     78.7       41     1009     0.00      226     13.2
    09/15/2014 07:30      0.8      182      2.0      205     82.2     83.3     80.8       39     1009     0.00      276     13.2
    09/15/2014 07:45      1.3      200      2.3      207     83.0     83.3     82.5       39     1009     0.00      326     13.1
    09/15/2014 08:00      0.9      195      2.5      197     84.0     85.2     83.2       34     1009     0.00      377     13.1
    09/15/2014 08:15      0.4      235      1.9      257     86.7     87.7     85.2       29     1009     0.00      427     13.1
    09/15/2014 08:30      0.7      235      2.6      256     88.8     90.0     87.5       26     1009     0.00      475     13.1
    09/15/2014 08:45      1.0      229      2.5      204     90.4     90.9     89.7       26     1009     0.00      522     13.1
    09/15/2014 09:00      0.9      194      2.8      185     91.1     92.3     90.1       22     1009     0.00      565     13.0
    09/15/2014 09:15      1.0      185      3.6      214     93.0     93.9     91.9       22     1009     0.00      608     13.0
    09/15/2014 09:30      1.1      193      2.6      214     94.1     94.9     93.3       19     1009     0.00      647     13.0
    09/15/2014 09:45      0.8      210      3.0      242     95.8     96.4     94.7       18     1009     0.00      683     13.0
    09/15/2014 10:00      1.9      175      4.8      189     96.9     97.4     96.1       17     1009     0.00      716     13.0
    09/15/2014 10:15      1.9      185      3.9      182     97.8     98.2     97.2       16     1009     0.00      744     13.0
    09/15/2014 10:30      1.7      210      3.8      231     98.9    100.1     97.8       15     1009     0.00      769     13.0
    09/15/2014 10:45      3.0      192      6.4      179     99.3    100.1     98.6       15     1009     0.00      791     13.0
    09/15/2014 11:00      3.0      149      6.8      180     99.9    100.7     99.2       15     1008     0.00      808     13.0
    09/15/2014 11:15      2.8      167      9.1      184    101.0    102.1    100.2       14     1008     0.00      822     12.9
    09/15/2014 11:30      3.6      192      8.9      200    101.7    102.4    100.9       14     1008     0.00      833     12.9
    09/15/2014 11:45      2.3      209      6.3      191    102.4    104.0    101.2       12     1008     0.00      838     12.9
    09/15/2014 12:00      3.5      176      9.8      185    103.3    104.0    102.3       14     1008     0.00      839     12.9
    09/15/2014 12:15      5.1      179     11.2      201    103.8    105.0    102.7       13     1008     0.00      836     12.9
    09/15/2014 12:30      3.5      142     11.2      167    103.7    104.6    102.6       14     1008     0.00      829     12.9
    09/15/2014 12:45      3.9      168     10.2      160    104.4    105.2    103.5       14     1007     0.00      814     12.9
    09/15/2014 13:00      2.2      218      8.8      209    105.2    106.2    103.9       14     1007     0.00      804     12.9
    09/15/2014 13:15      4.6      165     10.0      169    104.7    105.8    104.3       13     1007     0.00      773     12.9
    09/15/2014 13:30      5.3      162     12.9      174    105.1    105.8    104.1       14     1007     0.00      753     12.9
    09/15/2014 13:45      5.3      255     13.8      255    104.7    106.0    103.3       14     1007     0.00      719     12.9
    09/15/2014 14:00      6.4      271     14.3      248    102.9    103.6    102.2       15     1007     0.00      696     12.9
    09/15/2014 14:15      6.8      283     13.9      287    101.9    102.5    101.4       16     1007     0.00      669     12.9
    09/15/2014 14:30      6.8      280     16.2      241    101.8    102.3    101.3       15     1007     0.00      632     12.9
    09/15/2014 14:45      8.1      276     17.6      256    101.2    101.9    100.4       15     1007     0.00      594     12.9
    09/15/2014 15:00      7.5      271     15.0      253    100.5    100.9    100.1       15     1007     0.00      554     12.9
    09/15/2014 15:15      6.4      276     13.6      240    100.5    101.0     99.9       16     1007     0.00      511     12.9
    09/15/2014 15:30      7.7      273     16.8      240     99.3    100.0     98.7       16     1007     0.00      468     12.9
    09/15/2014 15:45      7.4      267     16.8      237     98.6     99.1     98.1       17     1007     0.00      420     12.9
    09/15/2014 16:00      6.9      273     15.4      241     97.9     98.5     97.4       18     1006     0.00      360     13.0
    09/15/2014 16:15      7.0      274     13.4      286     97.3     97.9     96.7       17     1006     0.00      321     13.0
    09/15/2014 16:30      8.5      260     15.6      234     96.6     97.1     96.4       18     1006     0.00      269     13.0
    09/15/2014 16:45      5.1      242     11.9      277     96.5     96.8     96.2       18     1007     0.00      219     13.0
    09/15/2014 17:00      4.5      233     12.4      240     96.0     96.4     95.4       18     1007     0.00      169     13.0
    09/15/2014 17:15      3.7      235      9.8      258     95.4     95.7     94.9       19     1007     0.00      125     13.0
    09/15/2014 17:30      3.5      235      8.8      256     94.5     95.0     93.9       21     1007     0.00       83     13.0
    09/15/2014 17:45      3.9      229     10.5      254     93.4     94.2     92.4       23     1007     0.00       40     13.0
    09/15/2014 18:00      3.9      237     11.4      258     91.9     92.4     91.5       23     1007     0.00       11     13.0
    09/15/2014 18:15      3.3      220      9.2      219     90.7     91.6     89.9       26     1007     0.00        3     13.1
    09/15/2014 18:30      3.2      233      7.7      261     89.8     90.1     89.3       28     1007     0.00        0     13.1
    09/15/2014 18:45      2.9      229      7.1      240     89.3     89.6     89.0       27     1007     0.00        0     13.1
    09/15/2014 19:00      1.0      219      3.6      196     88.7     89.3     88.4       27     1007     0.00        0     13.1
    09/15/2014 19:15      1.2      221      4.4      206     88.1     88.6     87.6       29     1007     0.00        0     13.1
    09/15/2014 19:30      0.7      282      2.2      260     87.6     88.0     87.2       28     1007     0.00        0     13.1
    09/15/2014 19:45      1.4      262      4.2      260     87.5     88.0     86.8       30     1008     0.00        0     13.1
    09/15/2014 20:00      0.6      342      2.3      318     86.9     87.2     86.6       29     1008     0.00        0     13.1
    09/15/2014 20:15      0.1      324      2.0      346     86.6     87.3     85.6       30     1008     0.00        0     13.1
    09/15/2014 20:30      0.1      202      1.6      211     85.3     85.9     84.9       32     1008     0.00        0     13.1
    09/15/2014 20:45      0.6      264      2.6      199     85.0     85.3     84.7       32     1008     0.00        0     13.1
    09/15/2014 21:00      0.6      282      2.6      252     84.6     85.1     84.3       32     1008     0.00        0     13.1
    09/15/2014 21:15      0.3      311      1.8      301     84.8     85.2     84.4       32     1008     0.00        0     13.1
    09/15/2014 21:30      0.1      306      1.6      352     84.1     84.9     83.5       33     1008     0.00        0     13.2
    09/15/2014 21:45      0.5      238      3.1      207     83.6     84.0     83.3       34     1008     0.00        0     13.1
    09/15/2014 22:00      1.1      183      4.8      215     83.7     84.8     83.0       31     1008     0.00        0     13.2
    09/15/2014 22:15      1.9      195      4.9      187     84.6     85.1     83.9       30     1008     0.00        0     13.2
    09/15/2014 22:30      1.9      191      7.0      207     84.9     85.2     84.4       29     1008     0.00        0     13.2
    09/15/2014 22:45      1.9      221      7.2      211     85.0     85.4     84.7       29     1008     0.00        0     13.2
    09/15/2014 23:00      0.6      224      6.5      226     85.3     85.8     83.9       31     1008     0.00        0     13.2
    09/15/2014 23:15      0.9      103      4.3       80     84.4     84.8     83.8       30     1008     0.00        0     13.2
    09/15/2014 23:30      1.2       53      3.8       44     84.3     84.6     84.1       30     1008     0.00        0     13.2
    09/15/2014 23:45      1.0      355      2.9       46     83.7     84.5     82.4       33     1008     0.00        0     13.2
    09/16/2014 00:00      0.9        6      2.9      346     82.8     83.5     82.3       33     1008     0.00        0     13.2
    09/16/2014 00:15      1.8       30      4.2       41     83.5     84.2     83.2       32     1008     0.00        0     13.2
    09/16/2014 00:30      0.4       38      3.1       40     83.6     84.4     81.7       36     1008     0.00        0     13.2
    09/16/2014 00:45      0.0        0      0.0      308     81.0     81.9     80.5       37     1008     0.00        0     13.2
    09/16/2014 01:00      0.4      259      2.4      253     79.8     80.8     79.0       41     1008     0.00        0     13.2
    09/16/2014 01:15      0.1      293      1.5      296     79.4     79.7     79.1       42     1008     0.00        0     13.2
    09/16/2014 01:30      0.1      320      1.5      340     79.5     80.0     79.1       39     1008     0.00        0     13.2
    09/16/2014 01:45      0.6      323      1.9      331     80.1     80.4     79.8       40     1008     0.00        0     13.2
    09/16/2014 02:00      0.0        0      0.0      316     79.1     80.0     78.5       42     1008     0.00        0     13.2
    09/16/2014 02:15      0.0        0      0.0      321     78.5     79.0     77.8       45     1008     0.00        0     13.2
    09/16/2014 02:30      0.3      312      1.4      319     77.8     78.2     77.3       44     1008     0.00        0     13.2
    09/16/2014 02:45      0.2      334      1.5      343     78.3     78.8     77.5       45     1008     0.00        0     13.2
    09/16/2014 03:00      0.0        0      0.0      325     77.1     77.8     76.6       46     1008     0.00        0     13.2
    09/16/2014 03:15      0.1       97      0.8       94     77.0     77.3     76.5       48     1008     0.00        0     13.2
    09/16/2014 03:30      0.1       65      1.1       58     76.5     76.8     76.3       48     1008     0.00        0     13.2
    09/16/2014 03:45      0.1       37      1.5       31     76.3     76.6     75.9       48     1008     0.00        0     13.2
    09/16/2014 04:00      0.0       42      1.1       46     75.7     76.2     75.3       51     1007     0.00        0     13.2
    09/16/2014 04:15      0.0      307      0.6      307     75.7     75.9     75.4       51     1008     0.00        0     13.2
    09/16/2014 04:30      0.0        0      0.0      305     75.4     75.7     75.1       51     1007     0.00        0     13.2
    09/16/2014 04:45      0.0      292      0.2      292     75.1     75.4     74.8       51     1008     0.00        0     13.2
    09/16/2014 05:00      0.1      303      2.1      336     75.0     75.4     74.6       51     1008     0.00        0     13.2
    09/16/2014 05:15      0.4      329      2.4      345     75.4     75.8     74.9       49     1008     0.00        0     13.2
    09/16/2014 05:30      0.3      333      1.8      339     75.9     76.3     75.5       49     1008     0.00        0     13.2
    09/16/2014 05:45      0.0        0      0.0      312     75.2     76.0     74.6       52     1008     0.00        3     13.2
    09/16/2014 06:00      0.2      288      1.4      293     74.4     74.8     74.1       53     1008     0.00       11     13.3
    09/16/2014 06:15      0.0        0      0.0      304     75.1     75.6     74.3       52     1008     0.00       19     13.2
    09/16/2014 06:30      0.0      294      0.6      302     76.3     77.5     75.4       47     1008     0.00       34     13.2
    09/16/2014 06:45      0.5      291      3.3      290     78.3     79.9     77.4       43     1008     0.00       60     13.2
    09/16/2014 07:00      0.3      233      2.6      243     80.8     82.1     79.8       40     1008     0.00      174     13.2
    09/16/2014 07:15      2.2      183      3.8      187     83.2     83.8     82.0       37     1008     0.00      228     13.2
    09/16/2014 07:30      1.8      153      4.6      151     84.6     85.2     83.8       34     1008     0.00      278     13.2
    09/16/2014 07:45      0.6      166      2.1      140     85.9     86.8     85.0       34     1008     0.00      329     13.1
    09/16/2014 08:00      0.7      217      3.0      247     87.5     88.6     86.4       31     1008     0.00      378     13.1
    09/16/2014 08:15      1.2      179      2.8      182     89.2     90.3     88.4       26     1008     0.00      425     13.1
    09/16/2014 08:30      2.0      150      5.6      164     90.6     91.8     89.9       27     1008     0.00      473     13.1
    09/16/2014 08:45      3.5      157      6.4      128     92.5     93.2     91.7       26     1008     0.00      518     13.0
    09/16/2014 09:00      2.9      157      5.1      148     92.8     93.5     92.0       24     1008     0.00      561     13.0
    09/16/2014 09:15      2.9      163      5.3      169     94.6     95.4     93.4       23     1008     0.00      600     13.0
    09/16/2014 09:30      1.7      150      7.7      154     95.7     96.7     94.4       21     1008     0.00      638     13.0
    09/16/2014 09:45      2.2      147      6.0      158     97.0     97.6     96.5       21     1008     0.00      637     13.0
    09/16/2014 10:00      1.4      153      4.8      148     98.1     98.8     97.4       20     1008     0.00      706     13.0
    09/16/2014 10:15      1.2      136      4.5      146     99.2    100.3     97.4       16     1008     0.00      736     13.0
    09/16/2014 10:30      2.1      128      5.5      148    100.2    101.0     99.5       16     1008     0.00      764     13.0
    09/16/2014 10:45      2.6      164      6.6      148    101.1    101.3    100.8       16     1007     0.00      784     12.9
    09/16/2014 11:00      2.8      165      6.6      163    101.4    102.4    100.4       14     1007     0.00      803     12.9
    09/16/2014 11:15      2.5      208      7.8      187    102.2    103.1    101.3       14     1007     0.00      816     12.9
    09/16/2014 11:30      2.0      183      6.8      199    103.0    104.3    101.8       15     1007     0.00      826     12.9
    09/16/2014 11:45      3.4      193      8.8      158    103.1    104.0    102.0       14     1007     0.00      835     12.9
    09/16/2014 12:00      2.2      172      7.9      181    104.4    105.6    103.7       13     1006     0.00      840     12.9
    09/16/2014 12:15      3.0      212      8.8      170    104.3    105.1    103.5       15     1006     0.00      835     12.9
    09/16/2014 12:30      3.0      148      8.5      137    104.4    105.4    103.0       14     1006     0.00      825     12.9
    09/16/2014 12:45      3.7      127     12.4       46    105.5    106.4    104.7       15     1006     0.00      803     12.9
    09/16/2014 13:00      5.6      131     11.6      153    105.2    106.0    104.3       14     1006     0.00      782     12.9
    09/16/2014 13:15      6.0      141     11.4      166    104.3    104.9    103.7       16     1005     0.00      772     12.9
    09/16/2014 13:30      5.4      125     12.3      158    104.5    105.1    103.8       16     1005     0.00      747     12.9
    09/16/2014 13:45      4.2      151      9.2       95    104.4    104.9    103.6       15     1005     0.00      711     12.9
    09/16/2014 14:00      6.0      262     13.8      248    104.0    104.9    103.1       15     1005     0.00      684     12.9
    09/16/2014 14:15      8.4      254     16.2      241    102.8    104.1    102.1       15     1005     0.00      660     12.9
    09/16/2014 14:30      6.0      274     13.6      246    102.9    103.6    102.3       15     1005     0.00      623     12.9
    09/16/2014 14:45      7.3      267     15.4      243    102.6    103.2    102.0       14     1005     0.00      585     12.9
    09/16/2014 15:00      6.1      269     11.6      256    102.6    103.1    102.2       14     1005     0.00      534     12.9
    09/16/2014 15:15      4.6      274     11.5      237    103.0    103.5    102.4       14     1005     0.00      496     12.9
    09/16/2014 15:30      5.5      267     11.2      243    102.5    103.4    101.9       14     1004     0.00      410     12.9
    09/16/2014 15:45      4.5      263     13.3      243    103.0    103.7    102.3       13     1004     0.00      466     12.9
    09/16/2014 16:00      4.4      273     10.3      256    102.9    103.4    102.1       14     1004     0.00      310     12.9
    09/16/2014 16:15      4.2      277      9.0      255    101.4    102.4    100.5       14     1005     0.00      145     12.9
    09/16/2014 16:30      4.3      288      9.8      278     99.9    100.6     99.4       13     1005     0.00       89     13.0
    09/16/2014 16:45      3.7      275      8.7      251     99.5     99.7     99.3       13     1005     0.00       89     13.0
    09/16/2014 17:00      2.4      314      7.4      281     99.0     99.5     98.7       14     1005     0.00       67     13.0
    09/16/2014 17:15      4.7       99     11.0      105     97.1     98.9     95.7       18     1005     0.00       81     13.0
    09/16/2014 17:30      3.7      108     10.7      138     94.3     95.9     93.0       19     1005     0.00       61     13.0
    09/16/2014 17:45      2.6      110      7.4       77     92.8     93.3     92.4       22     1005     0.00       51     13.0
    09/16/2014 18:00      3.3      100      9.4      103     91.7     92.5     91.1       24     1005     0.00       16     13.0
    09/16/2014 18:15      2.1       87      6.5      104     90.9     91.3     90.5       25     1006     0.00        2     13.1
    09/16/2014 18:30      2.7       54      6.4       28     90.5     90.7     90.2       25     1006     0.00        0     13.1
    09/16/2014 18:45      2.2       40      4.6       39     90.5     90.7     90.3       25     1006     0.00        0     13.1
    09/16/2014 19:00      2.4       57      5.4       37     90.6     90.9     90.4       25     1006     0.00        0     13.1
    09/16/2014 19:15      1.1       64      4.2       64     90.2     90.7     89.3       27     1006     0.00        0     13.1
    09/16/2014 19:30      1.0       15      3.6       34     89.5     90.0     89.0       26     1006     0.00        0     13.1
    09/16/2014 19:45      0.3       41      1.8       46     89.3     89.9     88.7       27     1006     0.00        0     13.1
    09/16/2014 20:00      0.0       60      0.7       65     87.7     88.8     86.8       31     1006     0.00        0     13.1
    09/16/2014 20:15      0.0        0      0.0      212     86.4     86.9     86.0       31     1006     0.00        0     13.1
    09/16/2014 20:30      0.0        0      0.0      333     86.2     86.6     85.8       32     1006     0.00        0     13.1
    09/16/2014 20:45      0.1      277      1.0      279     85.5     86.3     84.7       34     1006     0.00        0     13.1
    09/16/2014 21:00      0.0      310      0.9      307     85.2     85.7     84.9       34     1007     0.00        0     13.1
    09/16/2014 21:15      0.0        0      0.0      300     84.5     85.2     83.9       36     1007     0.00        0     13.1
    09/16/2014 21:30      0.0      140      1.3      148     84.0     84.3     83.8       39     1007     0.00        0     13.2
    09/16/2014 21:45      0.1      141      1.4      149     83.3     84.3     82.7       40     1007     0.00        0     13.2
    09/16/2014 22:00      0.0        0      0.0      154     83.0     83.3     82.7       37     1007     0.00        0     13.1
    09/16/2014 22:15      0.0        0      0.0       91     83.4     83.8     83.1       39     1007     0.00        0     13.2
    09/16/2014 22:30      0.0        4      0.7        5     83.1     83.5     82.7       39     1007     0.00        0     13.2
    09/16/2014 22:45      0.3       48      2.0       41     83.3     83.6     83.0       35     1007     0.00        0     13.2
    09/16/2014 23:00      1.2       38      3.2       36     84.3     84.9     83.4       33     1007     0.00        0     13.2
    09/16/2014 23:15      0.8        6      3.3       28     84.3     84.8     83.8       35     1007     0.00        0     13.2
    09/16/2014 23:30      0.5        6      2.4      327     83.6     84.1     83.1       36     1007     0.00        0     13.2
    09/16/2014 23:45      0.4       15      2.3       65     82.8     83.3     82.4       37     1007     0.00        0     13.2
    09/17/2014 00:00      0.7        2      3.1       16     83.0     83.4     82.5       36     1007     0.00        0     13.2
    09/17/2014 00:15      0.1      271      1.4      256     82.1     83.3     81.1       40     1007     0.00        0     13.2
    09/17/2014 00:30      0.1      241      1.5      236     80.5     81.2     80.0       42     1007     0.00        0     13.2
    09/17/2014 00:45      0.0        0      0.0      237     79.9     80.2     79.5       42     1007     0.00        0     13.2
    09/17/2014 01:00      0.3      147      2.3      151     79.5     79.9     79.2       45     1007     0.00        0     13.2
    09/17/2014 01:15      0.2      324      1.7      315     79.6     79.9     79.2       43     1007     0.00        0     13.2
    09/17/2014 01:30      0.5      331      1.9      318     80.1     80.4     79.7       44     1006     0.00        0     13.2
    09/17/2014 01:45      0.1      331      1.2      321     79.4     79.8     78.8       44     1006     0.00        0     13.2
    09/17/2014 02:00      0.5      337      3.2      338     79.4     80.2     78.7       41     1006     0.00        0     13.2
    09/17/2014 02:15      0.1       89      1.1       95     78.9     79.2     78.6       40     1006     0.00        0     13.2
    09/17/2014 02:30      1.1       32      3.9       -1     79.7     80.7     78.6       34     1006     0.00        0     13.2
    09/17/2014 02:45      1.2       24      3.6       41     80.9     81.2     80.4       35     1006     0.00        0     13.2
    09/17/2014 03:00      0.9       23      3.5       39     80.4     80.9     79.9       34     1006     0.00        0     13.2
    09/17/2014 03:15      0.4       19      2.8       22     79.6     80.7     78.7       37     1006     0.00        0     13.2
    09/17/2014 03:30      0.2      163      2.7      163     78.3     78.8     77.6       41     1006     0.00        0     13.2
    09/17/2014 03:45      0.0        0      0.0      205     77.8     78.2     77.4       40     1006     0.00        0     13.2
    09/17/2014 04:00      0.0      300      0.6      300     78.2     78.5     77.9       40     1006     0.00        0     13.2
    09/17/2014 04:15      0.0      331      0.6      331     77.9     78.0     77.7       42     1006     0.00        0     13.2
    09/17/2014 04:30      0.0        0      0.0      322     77.5     77.8     77.3       43     1006     0.00        0     13.2
    09/17/2014 04:45      0.0        0      0.0      328     77.2     77.7     76.7       46     1006     0.00        0     13.2
    09/17/2014 05:00      0.0        0      0.0      329     76.8     77.3     76.5       47     1006     0.00        0     13.2
    09/17/2014 05:15      0.0        0      0.0      326     76.3     77.0     75.8       50     1006     0.00        0     13.2
    09/17/2014 05:30      0.0        0      0.0      303     76.1     76.3     75.8       49     1007     0.00        0     13.2
    09/17/2014 05:45      0.0      331      0.9      330     76.3     76.8     75.7       51     1007     0.00        3     13.2
    09/17/2014 06:00      0.2      333      1.4      335     76.0     76.6     75.7       49     1007     0.00        9     13.2
    09/17/2014 06:15      0.1      339      1.1      337     77.2     78.0     76.5       48     1007     0.00       17     13.2
    09/17/2014 06:30      0.1      338      0.8      341     78.0     78.4     77.7       48     1007     0.00       30     13.2
    09/17/2014 06:45      0.0        0      0.0      291     78.9     79.6     78.3       46     1007     0.00       54     13.2
    09/17/2014 07:00      0.0        0      0.0      162     81.0     82.7     79.6       43     1007     0.00      165     13.2
    09/17/2014 07:15      0.0      171      0.7      171     84.1     85.5     82.7       39     1007     0.00      223     13.2
    09/17/2014 07:30      1.0      171      2.9      158     86.2     87.1     85.3       36     1007     0.00      274     13.1
    09/17/2014 07:45      0.8      134      2.0       54     88.9     90.2     86.9       33     1007     0.00      325     13.1
    09/17/2014 08:00      0.9      103      2.9      180     90.2     91.1     89.8       32     1007     0.00      374     13.1
    09/17/2014 08:15      1.4      117      5.2       88     91.0     91.4     90.4       32     1007     0.00      422     13.1
    09/17/2014 08:30      1.9      128      5.8      137     91.4     92.0     90.6       32     1007     0.00      467     13.1
    09/17/2014 08:45      2.5      116      6.5       92     91.9     92.6     90.9       31     1007     0.00      511     13.0
    09/17/2014 09:00      2.6      109      7.8       97     93.3     93.9     92.3       30     1007     0.00      555     13.0
    09/17/2014 09:15      3.0      121      7.4      149     93.3     94.2     92.5       29     1007     0.00      595     13.0
    09/17/2014 09:30      3.1      117      8.0      136     93.6     94.2     93.0       29     1007     0.00      633     13.0
    09/17/2014 09:45      3.2      127      8.6      170     94.4     94.9     94.0       29     1007     0.00      668     13.0
    09/17/2014 10:00      3.4      110      9.5       94     94.6     95.6     93.4       27     1007     0.00      698     13.0
    09/17/2014 10:15      3.7      131      9.9      144     95.2     95.8     94.3       29     1007     0.00      728     13.0
    09/17/2014 10:30      5.4      152     10.1      162     95.4     95.8     94.9       27     1007     0.00      752     13.0
    09/17/2014 10:45      5.2      154     10.0      149     95.8     96.3     95.2       27     1007     0.00      774     13.0
    09/17/2014 11:00      5.4      162     10.3      181     95.5     96.5     94.2       26     1007     0.00      790     13.0
    09/17/2014 11:15      4.8      131      9.6      141     96.0     96.4     95.5       26     1007     0.00      805     13.0
    09/17/2014 11:30      4.2      128      8.2      164     96.1     97.0     95.4       25     1007     0.00      816     13.0
    09/17/2014 11:45      4.4      127      9.8      150     96.5     97.2     95.5       24     1007     0.00      822     13.0
    09/17/2014 12:00      3.9      128      8.8      139     96.6     97.4     96.1       23     1007     0.00      824     13.0
    09/17/2014 12:15      4.2      116      8.9      130     97.0     97.6     96.4       23     1006     0.00      823     13.0
    09/17/2014 12:30      5.2      140     10.9      157     97.2     97.8     96.5       24     1006     0.00      813     13.0
    09/17/2014 12:45      6.0      153     12.8      164     96.9     97.5     96.2       25     1006     0.00      804     13.0
    09/17/2014 13:00      5.1      152     10.2      148     97.6     98.4     96.9       24     1006     0.00      785     13.0
    09/17/2014 13:15      4.9      146     11.1      163     97.5     98.1     96.9       23     1006     0.00      766     13.0
    09/17/2014 13:30      4.0      140     13.2       75     97.9     98.6     96.8       21     1006     0.00      743     13.0
    09/17/2014 13:45      4.5      255     10.6      255     97.8     98.4     97.2       18     1006     0.00      719     12.9
    09/17/2014 14:00      5.5      276     11.5      231     97.1     98.2     96.5       17     1005     0.00      689     12.9
    09/17/2014 14:15      5.9      274     15.2      257     96.7     97.3     96.1       17     1005     0.00      658     13.0
    09/17/2014 14:30      7.0      267     14.3      257     96.3     97.0     95.5       17     1005     0.00      623     13.0
    09/17/2014 14:45      6.6      266     16.6      257     96.0     96.7     95.3       17     1005     0.00      586     13.0
    09/17/2014 15:00      8.4      259     16.9      256     95.2     95.8     94.7       17     1005     0.00      546     13.0
    09/17/2014 15:15      6.7      279     15.1      252     94.9     95.2     94.3       16     1005     0.00      505     13.0
    09/17/2014 15:30      6.1      281     13.9      232     94.3     94.9     93.8       17     1005     0.00      460     13.0
    09/17/2014 15:45      5.9      274     12.3      257     93.6     93.9     93.3       20     1005     0.00      414     13.0
    09/17/2014 16:00      7.0      279     16.6      256     92.7     93.6     91.9       16     1005     0.00      353     13.0
    09/17/2014 16:15      8.1      265     18.2      249     91.5     92.4     90.7       16     1005     0.00      316     13.0
    09/17/2014 16:30      7.6      261     15.5      250     90.3     90.8     89.4       17     1005     0.00      265     13.0
    09/17/2014 16:45      8.6      253     17.2      264     88.9     89.4     88.3       18     1005     0.00      207     13.0
    09/17/2014 17:00      5.8      244     13.8      263     88.1     88.6     87.6       21     1006     0.00      164     13.0
    09/17/2014 17:15      6.8      252     16.4      261     87.0     87.8     86.3       23     1006     0.00      122     13.0
    09/17/2014 17:30      6.8      251     13.7      255     86.2     86.6     85.7       25     1006     0.00       75     13.1
    09/17/2014 17:45      7.9      251     15.5      253     85.3     85.8     84.6       26     1006     0.00       33     13.1
    09/17/2014 18:00      5.3      261     12.7      242     83.9     84.7     83.2       29     1006     0.00        8     13.1
    09/17/2014 18:15      3.2      229      8.4      262     82.8     83.4     81.9       31     1006     0.00        2     13.1
    09/17/2014 18:30      4.0      177      8.2      188     81.7     82.2     81.1       33     1006     0.00        0     13.1
    09/17/2014 18:45      3.4      214      7.7      242     80.6     81.3     80.0       35     1006     0.00        0     13.1
    09/17/2014 19:00      1.3      234      5.7      258     79.5     80.2     78.8       38     1006     0.00        0     13.2
    09/17/2014 19:15      1.8      242      5.4      226     78.8     79.2     78.3       39     1006     0.00        0     13.1
    09/17/2014 19:30      2.8      268      5.9      254     78.3     78.6     77.8       41     1006     0.00        0     13.2
    09/17/2014 19:45      4.4      257      8.5      247     77.4     78.0     76.9       44     1007     0.00        0     13.2
    09/17/2014 20:00      3.3      253      6.8      259     76.8     77.0     76.6       44     1007     0.00        0     13.2
    09/17/2014 20:15      1.3      269      4.1      256     76.4     76.8     76.0       46     1007     0.00        0     13.2
    09/17/2014 20:30      1.7      274      4.5      249     76.0     76.2     75.6       48     1007     0.00        0     13.2
    09/17/2014 20:45      1.4      283      4.0      258     75.7     76.1     75.1       48     1007     0.00        0     13.2
    09/17/2014 21:00      0.4      280      2.6      287     74.9     75.2     74.5       49     1007     0.00        0     13.2
    09/17/2014 21:15      0.2      210      1.8      230     74.3     74.7     73.8       49     1007     0.00        0     13.2
    09/17/2014 21:30      0.1      209      2.6      208     73.8     74.1     73.5       49     1007     0.00        0     13.2
    09/17/2014 21:45      0.0      221      1.0      205     73.5     73.8     73.3       49     1007     0.00        0     13.2
    09/17/2014 22:00      0.2      159      1.4      153     73.2     73.5     73.0       50     1007     0.00        0     13.2
    09/17/2014 22:15      0.3      158      1.3      165     73.0     73.3     72.6       51     1008     0.00        0     13.3
    09/17/2014 22:30      0.0      149      0.9      149     72.5     72.9     72.3       51     1008     0.00        0     13.3
    09/17/2014 22:45      0.0        0      0.0      227     72.4     72.6     72.1       53     1008     0.00        0     13.3
    09/17/2014 23:00      0.1      135      1.4      132     71.9     72.3     71.4       53     1008     0.00        0     13.3
    09/17/2014 23:15      0.0      145      0.8      148     71.4     71.7     71.2       54     1008     0.00        0     13.3
    09/17/2014 23:30      0.1      112      1.6       93     71.4     71.6     71.1       52     1008     0.00        0     13.3
    09/17/2014 23:45      0.1      347      1.6      348     71.3     71.6     70.9       55     1008     0.00        0     13.3
    09/18/2014 00:00      0.3      107      1.6      171     70.6     71.0     70.2       54     1008     0.00        0     13.3
    09/18/2014 00:15      0.7       29      2.5       41     71.2     72.0     70.6       52     1008     0.00        0     13.3
    09/18/2014 00:30      0.0       29      1.1       26     71.4     72.1     70.7       55     1008     0.00        0     13.3
    09/18/2014 00:45      0.0        0      0.0      355     70.6     70.9     70.1       57     1008     0.00        0     13.3
    09/18/2014 01:00      0.0        0      0.0      327     69.4     70.1     68.9       59     1008     0.00        0     13.3
    09/18/2014 01:15      0.0        0      0.0      261     69.1     69.4     68.8       60     1008     0.00        0     13.3
    09/18/2014 01:30      0.0        0      0.0      261     69.0     69.4     68.8       61     1008     0.00        0     13.3
    09/18/2014 01:45      0.0       72      0.6       58     69.0     69.3     68.8       61     1008     0.00        0     13.3
    09/18/2014 02:00      0.1       66      1.7       51     68.8     69.3     68.3       63     1008     0.00        0     13.3
    09/18/2014 02:15      0.0        0      0.0       73     68.0     68.3     67.7       64     1008     0.00        0     13.3
    09/18/2014 02:30      0.0        0      0.0      264     67.8     68.0     67.6       64     1008     0.00        0     13.3
    09/18/2014 02:45      0.0        0      0.0      262     67.9     68.2     67.7       63     1008     0.00        0     13.3
    09/18/2014 03:00      0.1       58      1.1       37     68.2     68.5     68.0       63     1008     0.00        0     13.3
    09/18/2014 03:15      0.6       51      2.4       58     68.5     68.7     68.2       62     1008     0.00        0     13.3
    09/18/2014 03:30      0.8       43      2.1       36     68.5     68.7     68.3       62     1008     0.00        0     13.3
    09/18/2014 03:45      1.8       44      3.8       19     68.6     68.8     68.2       62     1008     0.00        0     13.3
    09/18/2014 04:00      1.6       45      3.2       28     68.2     68.5     68.0       63     1008     0.00        0     13.3
    09/18/2014 04:15      0.9       53      3.3       42     67.8     68.1     67.4       64     1008     0.00        0     13.3
    09/18/2014 04:30      0.2       46      1.8       52     67.3     67.7     66.9       65     1008     0.00        0     13.3
    09/18/2014 04:45      0.1        5      1.0       31     66.7     67.2     66.1       66     1009     0.00        0     13.3
    09/18/2014 05:00      0.0        0      0.0      296     65.8     66.3     65.3       69     1009     0.00        0     13.3
    09/18/2014 05:15      0.0        0      0.0      318     65.3     65.6     65.2       70     1009     0.00        0     13.3
    09/18/2014 05:30      0.0        0      0.0       35     65.3     65.6     65.1       69     1009     0.00        0     13.4
    09/18/2014 05:45      0.3        1      1.7        3     65.4     65.8     65.2       69     1009     0.00        3     13.4
    09/18/2014 06:00      0.3      333      2.4      333     65.8     66.2     65.3       70     1009     0.00        9     13.4
    09/18/2014 06:15      0.0      339      0.2      344     65.6     65.8     65.5       70     1009     0.00       16     13.4
    09/18/2014 06:30      0.0        0      0.0      257     65.4     65.8     65.1       69     1010     0.00       22     13.3
    09/18/2014 06:45      0.4      150      2.1      120     66.9     67.8     65.8       64     1010     0.00       53     13.3
    09/18/2014 07:00      1.8      152      4.2      137     68.7     69.5     67.9       61     1010     0.00      172     13.3
    09/18/2014 07:15      2.2      156      4.3      157     69.8     70.2     69.4       59     1010     0.00      232     13.3
    09/18/2014 07:30      2.5      176      4.6      165     70.4     71.0     70.0       58     1010     0.00      279     13.3
    09/18/2014 07:45      2.2      150      6.2      190     71.3     72.1     70.2       56     1010     0.00      330     13.2
    09/18/2014 08:00      2.6      151      7.7      140     72.2     72.8     71.3       55     1011     0.00      381     13.2
    09/18/2014 08:15      2.5      111      5.5      107     73.4     73.8     72.7       52     1011     0.00      428     13.2
    09/18/2014 08:30      3.3      100      7.9       58     74.0     74.8     73.3       51     1011     0.00      474     13.2
    09/18/2014 08:45      2.8      139      5.8      148     74.2     74.7     73.8       52     1011     0.00      517     13.2
    09/18/2014 09:00      3.2      134      6.7      157     75.4     76.0     74.5       50     1011     0.00      560     13.1
    09/18/2014 09:15      3.1      111      7.3       77     76.0     76.6     75.3       49     1011     0.00      601     13.1
    09/18/2014 09:30      3.6      116      8.1      160     77.4     78.4     76.3       49     1011     0.00      635     13.1
    09/18/2014 09:45      4.0       99      8.4       95     77.3     78.0     76.0       47     1011     0.00      665     13.1
    09/18/2014 10:00      3.7      111      8.9      175     78.4     78.9     77.9       46     1011     0.00      694     13.1
    09/18/2014 10:15      3.1      158      7.3      179     78.2     78.9     77.5       44     1011     0.00      726     13.1
    09/18/2014 10:30      3.5       82      7.9       87     79.3     80.0     78.5       45     1011     0.00      752     13.1
    09/18/2014 10:45      5.3      144     10.2      155     79.5     80.1     78.7       44     1010     0.00      769     13.1
    09/18/2014 11:00      4.8      138     11.4      155     80.7     81.5     79.5       40     1010     0.00      787     13.1
    09/18/2014 11:15      3.5      161      7.5      159     81.3     82.0     80.6       42     1010     0.00      805     13.1
    09/18/2014 11:30      3.9      150      9.2      150     82.2     83.1     81.7       39     1010     0.00      809     13.0
    09/18/2014 11:45      4.1      134      8.4      141     82.8     83.9     81.6       38     1010     0.00      810     13.0
    09/18/2014 12:00      3.6      124      9.1      162     83.2     83.8     82.6       38     1009     0.00      812     13.0
    09/18/2014 12:15      4.2      129      9.2      178     83.6     84.1     83.2       37     1009     0.00      814     13.0
    09/18/2014 12:30      4.6      117     11.8      150     83.5     84.1     83.2       40     1009     0.00      805     13.0
    09/18/2014 12:45      4.6      120     11.3      140     83.7     84.3     83.1       40     1009     0.00      796     13.0
    09/18/2014 13:00      6.4      131     12.4      143     83.3     83.9     82.6       40     1009     0.00      779     13.0
    09/18/2014 13:15      5.7      123     11.0      147     83.4     84.3     82.8       39     1009     0.00      748     13.0
    09/18/2014 13:30      5.4      112     11.0       99     83.4     83.7     83.0       37     1009     0.00      732     13.0
    09/18/2014 13:45      5.7       93     12.1       74     83.1     83.9     82.4       38     1008     0.00      707     13.0